sensor_id;sensor_type;location;lat;lon;timestamp;P1;durP1;ratioP1;P2;durP2;ratioP2
16179;SDS011;8196;49.428;10.906;2023-11-19T00:02:26;0.20;;;0.20;;
16179;SDS011;8196;49.428;10.906;2023-11-19T00:04:53;0.10;;;0.10;;
16179;SDS011;8196;49.428;10.906;2023-11-19T00:07:21;0.00;;;0.00;;
16179;SDS011;8196;49.428;10.906;2023-11-19T00:09:51;0.10;;;0.10;;
16179;SDS011;8196;49.428;10.906;2023-11-19T00:12:18;0.03;;;0.03;;
16179;SDS011;8196;49.428;10.906;2023-11-19T00:14:45;0.10;;;0.10;;
16179;SDS011;8196;49.428;10.906;2023-11-19T00:17:13;0.10;;;0.10;;
16179;SDS011;8196;49.428;10.906;2023-11-19T00:19:40;0.10;;;0.10;;
16179;SDS011;8196;49.428;10.906;2023-11-19T00:22:07;0.15;;;0.15;;
16179;SDS011;8196;49.428;10.906;2023-11-19T00:24:34;0.10;;;0.10;;
16179;SDS011;8196;49.428;10.906;2023-11-19T00:27:03;0.10;;;0.10;;
16179;SDS011;8196;49.428;10.906;2023-11-19T00:29:30;0.10;;;0.10;;
16179;SDS011;8196;49.428;10.906;2023-11-19T00:31:57;0.10;;;0.10;;
16179;SDS011;8196;49.428;10.906;2023-11-19T00:34:24;0.00;;;0.00;;
16179;SDS011;8196;49.428;10.906;2023-11-19T00:36:52;0.10;;;0.10;;
16179;SDS011;8196;49.428;10.906;2023-11-19T00:39:21;0.10;;;0.10;;
16179;SDS011;8196;49.428;10.906;2023-11-19T00:41:48;0.10;;;0.10;;
16179;SDS011;8196;49.428;10.906;2023-11-19T00:44:15;0.13;;;0.13;;
16179;SDS011;8196;49.428;10.906;2023-11-19T00:46:43;0.17;;;0.17;;
16179;SDS011;8196;49.428;10.906;2023-11-19T00:49:10;0.00;;;0.00;;
16179;SDS011;8196;49.428;10.906;2023-11-19T00:51:38;0.10;;;0.10;;
16179;SDS011;8196;49.428;10.906;2023-11-19T00:54:05;0.10;;;0.10;;
16179;SDS011;8196;49.428;10.906;2023-11-19T00:56:32;0.10;;;0.10;;
16179;SDS011;8196;49.428;10.906;2023-11-19T00:58:59;0.20;;;0.20;;
16179;SDS011;8196;49.428;10.906;2023-11-19T01:01:27;0.15;;;0.15;;
16179;SDS011;8196;49.428;10.906;2023-11-19T01:03:54;0.05;;;0.05;;
16179;SDS011;8196;49.428;10.906;2023-11-19T01:06:29;0.00;;;0.00;;
16179;SDS011;8196;49.428;10.906;2023-11-19T01:08:56;0.00;;;0.00;;
16179;SDS011;8196;49.428;10.906;2023-11-19T01:11:25;0.10;;;0.10;;
16179;SDS011;8196;49.428;10.906;2023-11-19T01:13:52;0.10;;;0.10;;
16179;SDS011;8196;49.428;10.906;2023-11-19T01:16:19;0.10;;;0.10;;
16179;SDS011;8196;49.428;10.906;2023-11-19T01:18:47;0.20;;;0.20;;
16179;SDS011;8196;49.428;10.906;2023-11-19T01:21:15;0.10;;;0.10;;
16179;SDS011;8196;49.428;10.906;2023-11-19T01:23:42;0.00;;;0.00;;
16179;SDS011;8196;49.428;10.906;2023-11-19T01:26:10;0.00;;;0.00;;
16179;SDS011;8196;49.428;10.906;2023-11-19T01:28:38;0.10;;;0.10;;
16179;SDS011;8196;49.428;10.906;2023-11-19T01:31:15;0.10;;;0.10;;
16179;SDS011;8196;49.428;10.906;2023-11-19T01:33:42;0.10;;;0.10;;
16179;SDS011;8196;49.428;10.906;2023-11-19T01:36:12;0.10;;;0.10;;
16179;SDS011;8196;49.428;10.906;2023-11-19T01:38:39;0.10;;;0.10;;
16179;SDS011;8196;49.428;10.906;2023-11-19T01:41:07;0.00;;;0.00;;
16179;SDS011;8196;49.428;10.906;2023-11-19T01:43:35;0.00;;;0.00;;
16179;SDS011;8196;49.428;10.906;2023-11-19T01:46:04;0.10;;;0.10;;
16179;SDS011;8196;49.428;10.906;2023-11-19T01:48:32;0.00;;;0.00;;
16179;SDS011;8196;49.428;10.906;2023-11-19T01:51:01;0.00;;;0.00;;
16179;SDS011;8196;49.428;10.906;2023-11-19T01:53:30;0.08;;;0.08;;
16179;SDS011;8196;49.428;10.906;2023-11-19T01:55:58;0.10;;;0.10;;
16179;SDS011;8196;49.428;10.906;2023-11-19T01:58:25;0.10;;;0.10;;
16179;SDS011;8196;49.428;10.906;2023-11-19T02:00:52;0.20;;;0.20;;
16179;SDS011;8196;49.428;10.906;2023-11-19T02:03:20;0.00;;;0.00;;
16179;SDS011;8196;49.428;10.906;2023-11-19T02:05:48;0.20;;;0.20;;
16179;SDS011;8196;49.428;10.906;2023-11-19T02:08:17;0.08;;;0.08;;
16179;SDS011;8196;49.428;10.906;2023-11-19T02:10:44;0.10;;;0.10;;
16179;SDS011;8196;49.428;10.906;2023-11-19T02:13:11;0.10;;;0.10;;
16179;SDS011;8196;49.428;10.906;2023-11-19T02:15:41;0.10;;;0.10;;
16179;SDS011;8196;49.428;10.906;2023-11-19T02:18:24;0.10;;;0.10;;
16179;SDS011;8196;49.428;10.906;2023-11-19T02:20:54;0.10;;;0.10;;
16179;SDS011;8196;49.428;10.906;2023-11-19T02:23:22;0.10;;;0.10;;
16179;SDS011;8196;49.428;10.906;2023-11-19T02:25:55;0.20;;;0.20;;
16179;SDS011;8196;49.428;10.906;2023-11-19T02:28:24;0.20;;;0.20;;
16179;SDS011;8196;49.428;10.906;2023-11-19T02:30:51;0.20;;;0.20;;
16179;SDS011;8196;49.428;10.906;2023-11-19T02:33:19;0.10;;;0.10;;
16179;SDS011;8196;49.428;10.906;2023-11-19T02:35:46;0.00;;;0.00;;
16179;SDS011;8196;49.428;10.906;2023-11-19T02:38:15;0.10;;;0.10;;
16179;SDS011;8196;49.428;10.906;2023-11-19T02:40:43;0.00;;;0.00;;
16179;SDS011;8196;49.428;10.906;2023-11-19T02:43:10;0.00;;;0.00;;
16179;SDS011;8196;49.428;10.906;2023-11-19T02:45:37;0.20;;;0.20;;
16179;SDS011;8196;49.428;10.906;2023-11-19T02:48:04;0.10;;;0.10;;
16179;SDS011;8196;49.428;10.906;2023-11-19T02:50:32;0.20;;;0.20;;
16179;SDS011;8196;49.428;10.906;2023-11-19T02:52:59;0.10;;;0.10;;
16179;SDS011;8196;49.428;10.906;2023-11-19T02:55:27;0.10;;;0.10;;
16179;SDS011;8196;49.428;10.906;2023-11-19T02:57:57;0.10;;;0.10;;
16179;SDS011;8196;49.428;10.906;2023-11-19T03:00:26;0.10;;;0.10;;
16179;SDS011;8196;49.428;10.906;2023-11-19T03:02:58;0.10;;;0.10;;
16179;SDS011;8196;49.428;10.906;2023-11-19T03:05:26;0.10;;;0.10;;
16179;SDS011;8196;49.428;10.906;2023-11-19T03:07:57;0.10;;;0.10;;
16179;SDS011;8196;49.428;10.906;2023-11-19T03:10:24;0.00;;;0.00;;
16179;SDS011;8196;49.428;10.906;2023-11-19T03:12:51;0.00;;;0.00;;
16179;SDS011;8196;49.428;10.906;2023-11-19T03:15:18;0.20;;;0.20;;
16179;SDS011;8196;49.428;10.906;2023-11-19T03:17:47;0.10;;;0.10;;
16179;SDS011;8196;49.428;10.906;2023-11-19T03:20:14;0.10;;;0.10;;
16179;SDS011;8196;49.428;10.906;2023-11-19T03:22:42;0.10;;;0.10;;
16179;SDS011;8196;49.428;10.906;2023-11-19T03:25:11;0.10;;;0.10;;
16179;SDS011;8196;49.428;10.906;2023-11-19T03:27:39;0.10;;;0.10;;
16179;SDS011;8196;49.428;10.906;2023-11-19T03:30:08;0.10;;;0.10;;
16179;SDS011;8196;49.428;10.906;2023-11-19T03:32:36;0.10;;;0.10;;
16179;SDS011;8196;49.428;10.906;2023-11-19T03:35:05;0.13;;;0.13;;
16179;SDS011;8196;49.428;10.906;2023-11-19T03:37:35;0.20;;;0.20;;
16179;SDS011;8196;49.428;10.906;2023-11-19T03:40:03;0.10;;;0.10;;
16179;SDS011;8196;49.428;10.906;2023-11-19T03:42:30;0.10;;;0.10;;
16179;SDS011;8196;49.428;10.906;2023-11-19T03:44:58;0.10;;;0.10;;
16179;SDS011;8196;49.428;10.906;2023-11-19T03:47:25;0.10;;;0.10;;
16179;SDS011;8196;49.428;10.906;2023-11-19T03:49:53;0.10;;;0.10;;
16179;SDS011;8196;49.428;10.906;2023-11-19T03:52:20;0.10;;;0.10;;
16179;SDS011;8196;49.428;10.906;2023-11-19T03:54:47;0.10;;;0.10;;
16179;SDS011;8196;49.428;10.906;2023-11-19T03:57:14;0.20;;;0.20;;
16179;SDS011;8196;49.428;10.906;2023-11-19T03:59:42;0.20;;;0.20;;
16179;SDS011;8196;49.428;10.906;2023-11-19T04:02:10;0.15;;;0.15;;
16179;SDS011;8196;49.428;10.906;2023-11-19T04:04:37;0.10;;;0.10;;
16179;SDS011;8196;49.428;10.906;2023-11-19T04:07:05;0.03;;;0.03;;
16179;SDS011;8196;49.428;10.906;2023-11-19T04:09:32;0.10;;;0.10;;
16179;SDS011;8196;49.428;10.906;2023-11-19T04:12:00;0.10;;;0.10;;
16179;SDS011;8196;49.428;10.906;2023-11-19T04:14:27;0.10;;;0.10;;
16179;SDS011;8196;49.428;10.906;2023-11-19T04:16:54;0.10;;;0.10;;
16179;SDS011;8196;49.428;10.906;2023-11-19T04:19:21;0.10;;;0.10;;
16179;SDS011;8196;49.428;10.906;2023-11-19T04:21:49;0.10;;;0.10;;
16179;SDS011;8196;49.428;10.906;2023-11-19T04:24:16;0.00;;;0.00;;
16179;SDS011;8196;49.428;10.906;2023-11-19T04:26:44;0.00;;;0.00;;
16179;SDS011;8196;49.428;10.906;2023-11-19T04:29:12;0.00;;;0.00;;
16179;SDS011;8196;49.428;10.906;2023-11-19T04:31:41;0.10;;;0.10;;
16179;SDS011;8196;49.428;10.906;2023-11-19T04:34:08;0.10;;;0.10;;
16179;SDS011;8196;49.428;10.906;2023-11-19T04:36:35;0.00;;;0.00;;
16179;SDS011;8196;49.428;10.906;2023-11-19T04:39:03;0.10;;;0.10;;
16179;SDS011;8196;49.428;10.906;2023-11-19T04:41:35;0.20;;;0.20;;
16179;SDS011;8196;49.428;10.906;2023-11-19T04:44:03;0.10;;;0.10;;
16179;SDS011;8196;49.428;10.906;2023-11-19T04:46:30;0.13;;;0.13;;
16179;SDS011;8196;49.428;10.906;2023-11-19T04:48:57;0.10;;;0.10;;
16179;SDS011;8196;49.428;10.906;2023-11-19T04:51:24;0.10;;;0.10;;
16179;SDS011;8196;49.428;10.906;2023-11-19T04:53:51;0.00;;;0.00;;
16179;SDS011;8196;49.428;10.906;2023-11-19T04:56:19;0.17;;;0.17;;
16179;SDS011;8196;49.428;10.906;2023-11-19T04:58:48;0.10;;;0.10;;
16179;SDS011;8196;49.428;10.906;2023-11-19T05:01:15;0.10;;;0.10;;
16179;SDS011;8196;49.428;10.906;2023-11-19T05:03:43;0.10;;;0.10;;
16179;SDS011;8196;49.428;10.906;2023-11-19T05:06:12;0.10;;;0.10;;
16179;SDS011;8196;49.428;10.906;2023-11-19T05:08:39;0.20;;;0.20;;
16179;SDS011;8196;49.428;10.906;2023-11-19T05:11:06;0.10;;;0.10;;
16179;SDS011;8196;49.428;10.906;2023-11-19T05:13:33;0.10;;;0.10;;
16179;SDS011;8196;49.428;10.906;2023-11-19T05:16:00;0.10;;;0.10;;
16179;SDS011;8196;49.428;10.906;2023-11-19T05:18:27;0.10;;;0.10;;
16179;SDS011;8196;49.428;10.906;2023-11-19T05:20:54;0.00;;;0.00;;
16179;SDS011;8196;49.428;10.906;2023-11-19T05:23:21;0.00;;;0.00;;
16179;SDS011;8196;49.428;10.906;2023-11-19T05:25:49;0.00;;;0.00;;
16179;SDS011;8196;49.428;10.906;2023-11-19T05:28:16;0.00;;;0.00;;
16179;SDS011;8196;49.428;10.906;2023-11-19T05:30:43;0.00;;;0.00;;
16179;SDS011;8196;49.428;10.906;2023-11-19T05:33:11;0.10;;;0.10;;
16179;SDS011;8196;49.428;10.906;2023-11-19T05:35:38;0.00;;;0.00;;
16179;SDS011;8196;49.428;10.906;2023-11-19T05:38:07;0.10;;;0.10;;
16179;SDS011;8196;49.428;10.906;2023-11-19T05:40:35;0.10;;;0.10;;
16179;SDS011;8196;49.428;10.906;2023-11-19T05:43:05;0.10;;;0.10;;
16179;SDS011;8196;49.428;10.906;2023-11-19T05:45:32;0.10;;;0.10;;
16179;SDS011;8196;49.428;10.906;2023-11-19T05:48:00;0.10;;;0.10;;
16179;SDS011;8196;49.428;10.906;2023-11-19T05:50:27;0.10;;;0.10;;
16179;SDS011;8196;49.428;10.906;2023-11-19T05:52:55;0.10;;;0.10;;
16179;SDS011;8196;49.428;10.906;2023-11-19T05:55:21;0.10;;;0.10;;
16179;SDS011;8196;49.428;10.906;2023-11-19T05:57:49;0.10;;;0.10;;
16179;SDS011;8196;49.428;10.906;2023-11-19T06:00:18;0.00;;;0.00;;
16179;SDS011;8196;49.428;10.906;2023-11-19T06:02:45;0.00;;;0.00;;
16179;SDS011;8196;49.428;10.906;2023-11-19T06:05:12;0.80;;;0.10;;
16179;SDS011;8196;49.428;10.906;2023-11-19T06:07:39;0.10;;;0.10;;
16179;SDS011;8196;49.428;10.906;2023-11-19T06:10:07;0.20;;;0.20;;
16179;SDS011;8196;49.428;10.906;2023-11-19T06:12:36;0.10;;;0.10;;
16179;SDS011;8196;49.428;10.906;2023-11-19T06:15:05;0.10;;;0.10;;
16179;SDS011;8196;49.428;10.906;2023-11-19T06:17:32;0.10;;;0.10;;
16179;SDS011;8196;49.428;10.906;2023-11-19T06:20:00;0.10;;;0.10;;
16179;SDS011;8196;49.428;10.906;2023-11-19T06:22:27;0.10;;;0.10;;
16179;SDS011;8196;49.428;10.906;2023-11-19T06:24:54;0.10;;;0.10;;
16179;SDS011;8196;49.428;10.906;2023-11-19T06:27:21;0.10;;;0.10;;
16179;SDS011;8196;49.428;10.906;2023-11-19T06:29:48;0.10;;;0.10;;
16179;SDS011;8196;49.428;10.906;2023-11-19T06:32:15;0.10;;;0.10;;
16179;SDS011;8196;49.428;10.906;2023-11-19T06:34:43;0.10;;;0.10;;
16179;SDS011;8196;49.428;10.906;2023-11-19T06:37:10;0.10;;;0.10;;
16179;SDS011;8196;49.428;10.906;2023-11-19T06:39:37;0.10;;;0.10;;
16179;SDS011;8196;49.428;10.906;2023-11-19T06:42:05;0.10;;;0.10;;
16179;SDS011;8196;49.428;10.906;2023-11-19T06:44:32;0.15;;;0.15;;
16179;SDS011;8196;49.428;10.906;2023-11-19T06:46:59;0.30;;;0.30;;
16179;SDS011;8196;49.428;10.906;2023-11-19T06:49:26;0.10;;;0.10;;
16179;SDS011;8196;49.428;10.906;2023-11-19T06:51:53;0.10;;;0.10;;
16179;SDS011;8196;49.428;10.906;2023-11-19T06:54:20;0.10;;;0.10;;
16179;SDS011;8196;49.428;10.906;2023-11-19T06:56:48;0.10;;;0.10;;
16179;SDS011;8196;49.428;10.906;2023-11-19T06:59:15;1.50;;;0.70;;
16179;SDS011;8196;49.428;10.906;2023-11-19T07:01:42;0.10;;;0.10;;
16179;SDS011;8196;49.428;10.906;2023-11-19T07:04:10;0.08;;;0.08;;
16179;SDS011;8196;49.428;10.906;2023-11-19T07:06:38;0.00;;;0.00;;
16179;SDS011;8196;49.428;10.906;2023-11-19T07:09:07;0.03;;;0.03;;
16179;SDS011;8196;49.428;10.906;2023-11-19T07:11:38;0.10;;;0.10;;
16179;SDS011;8196;49.428;10.906;2023-11-19T07:14:06;0.00;;;0.00;;
16179;SDS011;8196;49.428;10.906;2023-11-19T07:16:34;0.03;;;0.03;;
16179;SDS011;8196;49.428;10.906;2023-11-19T07:19:03;0.17;;;0.17;;
16179;SDS011;8196;49.428;10.906;2023-11-19T07:21:31;0.13;;;0.13;;
16179;SDS011;8196;49.428;10.906;2023-11-19T07:24:00;0.10;;;0.10;;
16179;SDS011;8196;49.428;10.906;2023-11-19T07:26:27;0.20;;;0.20;;
16179;SDS011;8196;49.428;10.906;2023-11-19T07:28:54;0.00;;;0.00;;
16179;SDS011;8196;49.428;10.906;2023-11-19T07:31:22;0.10;;;0.10;;
16179;SDS011;8196;49.428;10.906;2023-11-19T07:33:50;0.00;;;0.00;;
16179;SDS011;8196;49.428;10.906;2023-11-19T07:36:17;0.00;;;0.00;;
16179;SDS011;8196;49.428;10.906;2023-11-19T07:38:45;0.00;;;0.00;;
16179;SDS011;8196;49.428;10.906;2023-11-19T07:41:13;0.10;;;0.10;;
16179;SDS011;8196;49.428;10.906;2023-11-19T07:43:43;0.10;;;0.10;;
16179;SDS011;8196;49.428;10.906;2023-11-19T07:46:11;0.10;;;0.10;;
16179;SDS011;8196;49.428;10.906;2023-11-19T07:48:40;0.10;;;0.10;;
16179;SDS011;8196;49.428;10.906;2023-11-19T07:51:08;0.10;;;0.10;;
16179;SDS011;8196;49.428;10.906;2023-11-19T07:53:35;0.10;;;0.10;;
16179;SDS011;8196;49.428;10.906;2023-11-19T07:56:04;0.10;;;0.10;;
16179;SDS011;8196;49.428;10.906;2023-11-19T07:58:31;0.10;;;0.10;;
16179;SDS011;8196;49.428;10.906;2023-11-19T08:00:58;0.10;;;0.10;;
16179;SDS011;8196;49.428;10.906;2023-11-19T08:03:26;0.10;;;0.10;;
16179;SDS011;8196;49.428;10.906;2023-11-19T08:05:55;0.10;;;0.10;;
16179;SDS011;8196;49.428;10.906;2023-11-19T08:08:23;0.10;;;0.10;;
16179;SDS011;8196;49.428;10.906;2023-11-19T08:10:50;0.10;;;0.10;;
16179;SDS011;8196;49.428;10.906;2023-11-19T08:13:18;0.10;;;0.10;;
16179;SDS011;8196;49.428;10.906;2023-11-19T08:15:47;0.10;;;0.10;;
16179;SDS011;8196;49.428;10.906;2023-11-19T08:18:14;0.10;;;0.10;;
16179;SDS011;8196;49.428;10.906;2023-11-19T08:20:41;0.10;;;0.10;;
16179;SDS011;8196;49.428;10.906;2023-11-19T08:23:10;0.15;;;0.15;;
16179;SDS011;8196;49.428;10.906;2023-11-19T08:28:05;0.40;;;0.40;;
16179;SDS011;8196;49.428;10.906;2023-11-19T08:30:33;0.00;;;0.00;;
16179;SDS011;8196;49.428;10.906;2023-11-19T08:33:00;0.10;;;0.10;;
16179;SDS011;8196;49.428;10.906;2023-11-19T08:35:29;0.80;;;0.50;;
16179;SDS011;8196;49.428;10.906;2023-11-19T08:37:56;0.20;;;0.20;;
16179;SDS011;8196;49.428;10.906;2023-11-19T08:40:25;0.10;;;0.10;;
16179;SDS011;8196;49.428;10.906;2023-11-19T08:42:52;0.10;;;0.10;;
16179;SDS011;8196;49.428;10.906;2023-11-19T08:45:19;0.10;;;0.10;;
16179;SDS011;8196;49.428;10.906;2023-11-19T08:47:46;0.10;;;0.10;;
16179;SDS011;8196;49.428;10.906;2023-11-19T08:50:13;0.20;;;0.20;;
16179;SDS011;8196;49.428;10.906;2023-11-19T08:52:41;0.32;;;0.32;;
16179;SDS011;8196;49.428;10.906;2023-11-19T08:55:08;0.10;;;0.10;;
16179;SDS011;8196;49.428;10.906;2023-11-19T08:57:36;0.10;;;0.10;;
16179;SDS011;8196;49.428;10.906;2023-11-19T09:00:03;0.10;;;0.10;;
16179;SDS011;8196;49.428;10.906;2023-11-19T09:02:35;0.20;;;0.20;;
16179;SDS011;8196;49.428;10.906;2023-11-19T09:05:04;0.15;;;0.15;;
16179;SDS011;8196;49.428;10.906;2023-11-19T09:07:31;0.20;;;0.20;;
16179;SDS011;8196;49.428;10.906;2023-11-19T09:09:58;0.10;;;0.10;;
16179;SDS011;8196;49.428;10.906;2023-11-19T09:12:26;0.10;;;0.10;;
16179;SDS011;8196;49.428;10.906;2023-11-19T09:14:53;0.10;;;0.10;;
16179;SDS011;8196;49.428;10.906;2023-11-19T09:17:20;0.10;;;0.10;;
16179;SDS011;8196;49.428;10.906;2023-11-19T09:19:47;0.10;;;0.10;;
16179;SDS011;8196;49.428;10.906;2023-11-19T09:22:15;0.00;;;0.00;;
16179;SDS011;8196;49.428;10.906;2023-11-19T09:24:42;0.10;;;0.10;;
16179;SDS011;8196;49.428;10.906;2023-11-19T09:27:11;0.10;;;0.10;;
16179;SDS011;8196;49.428;10.906;2023-11-19T09:29:38;0.10;;;0.10;;
16179;SDS011;8196;49.428;10.906;2023-11-19T09:32:05;0.20;;;0.20;;
16179;SDS011;8196;49.428;10.906;2023-11-19T09:34:33;0.40;;;0.40;;
16179;SDS011;8196;49.428;10.906;2023-11-19T09:37:01;0.10;;;0.10;;
16179;SDS011;8196;49.428;10.906;2023-11-19T09:39:29;0.15;;;0.15;;
16179;SDS011;8196;49.428;10.906;2023-11-19T09:41:56;0.00;;;0.00;;
16179;SDS011;8196;49.428;10.906;2023-11-19T09:44:24;0.10;;;0.10;;
16179;SDS011;8196;49.428;10.906;2023-11-19T09:46:53;0.10;;;0.10;;
16179;SDS011;8196;49.428;10.906;2023-11-19T09:49:21;0.10;;;0.10;;
16179;SDS011;8196;49.428;10.906;2023-11-19T09:51:52;0.10;;;0.10;;
16179;SDS011;8196;49.428;10.906;2023-11-19T09:54:20;0.00;;;0.00;;
16179;SDS011;8196;49.428;10.906;2023-11-19T09:56:47;0.10;;;0.10;;
16179;SDS011;8196;49.428;10.906;2023-11-19T09:59:15;0.25;;;0.25;;
16179;SDS011;8196;49.428;10.906;2023-11-19T10:01:46;0.10;;;0.10;;
16179;SDS011;8196;49.428;10.906;2023-11-19T10:04:15;0.03;;;0.03;;
16179;SDS011;8196;49.428;10.906;2023-11-19T10:06:43;0.20;;;0.20;;
16179;SDS011;8196;49.428;10.906;2023-11-19T10:09:11;0.10;;;0.10;;
16179;SDS011;8196;49.428;10.906;2023-11-19T10:11:41;0.20;;;0.20;;
16179;SDS011;8196;49.428;10.906;2023-11-19T10:14:08;0.10;;;0.10;;
16179;SDS011;8196;49.428;10.906;2023-11-19T10:16:36;0.30;;;0.30;;
16179;SDS011;8196;49.428;10.906;2023-11-19T10:19:04;0.10;;;0.10;;
16179;SDS011;8196;49.428;10.906;2023-11-19T10:21:32;0.10;;;0.10;;
16179;SDS011;8196;49.428;10.906;2023-11-19T10:24:00;0.20;;;0.20;;
16179;SDS011;8196;49.428;10.906;2023-11-19T10:26:27;0.15;;;0.15;;
16179;SDS011;8196;49.428;10.906;2023-11-19T10:28:55;0.10;;;0.10;;
16179;SDS011;8196;49.428;10.906;2023-11-19T10:31:23;0.10;;;0.10;;
16179;SDS011;8196;49.428;10.906;2023-11-19T10:33:52;0.10;;;0.10;;
16179;SDS011;8196;49.428;10.906;2023-11-19T10:36:19;0.05;;;0.05;;
16179;SDS011;8196;49.428;10.906;2023-11-19T10:38:53;0.20;;;0.20;;
16179;SDS011;8196;49.428;10.906;2023-11-19T10:41:35;0.20;;;0.20;;
16179;SDS011;8196;49.428;10.906;2023-11-19T10:44:03;0.20;;;0.20;;
16179;SDS011;8196;49.428;10.906;2023-11-19T10:46:39;0.10;;;0.10;;
16179;SDS011;8196;49.428;10.906;2023-11-19T10:49:07;0.10;;;0.10;;
16179;SDS011;8196;49.428;10.906;2023-11-19T10:51:35;0.10;;;0.10;;
16179;SDS011;8196;49.428;10.906;2023-11-19T10:54:04;0.20;;;0.20;;
16179;SDS011;8196;49.428;10.906;2023-11-19T10:56:32;1.70;;;1.20;;
16179;SDS011;8196;49.428;10.906;2023-11-19T10:59:00;0.10;;;0.10;;
16179;SDS011;8196;49.428;10.906;2023-11-19T11:01:32;0.10;;;0.10;;
16179;SDS011;8196;49.428;10.906;2023-11-19T11:04:01;0.10;;;0.10;;
16179;SDS011;8196;49.428;10.906;2023-11-19T11:06:29;0.20;;;0.20;;
16179;SDS011;8196;49.428;10.906;2023-11-19T11:08:57;0.10;;;0.10;;
16179;SDS011;8196;49.428;10.906;2023-11-19T11:11:25;0.10;;;0.10;;
16179;SDS011;8196;49.428;10.906;2023-11-19T11:13:53;0.10;;;0.10;;
16179;SDS011;8196;49.428;10.906;2023-11-19T11:16:21;0.10;;;0.10;;
16179;SDS011;8196;49.428;10.906;2023-11-19T11:18:49;0.20;;;0.20;;
16179;SDS011;8196;49.428;10.906;2023-11-19T11:21:22;0.10;;;0.10;;
16179;SDS011;8196;49.428;10.906;2023-11-19T11:32:13;0.10;;;0.10;;
16179;SDS011;8196;49.428;10.906;2023-11-19T11:34:47;0.80;;;0.80;;
16179;SDS011;8196;49.428;10.906;2023-11-19T11:37:22;0.10;;;0.10;;
16179;SDS011;8196;49.428;10.906;2023-11-19T11:39:52;0.10;;;0.10;;
16179;SDS011;8196;49.428;10.906;2023-11-19T11:45:18;0.10;;;0.10;;
16179;SDS011;8196;49.428;10.906;2023-11-19T11:55:36;0.10;;;0.10;;
16179;SDS011;8196;49.428;10.906;2023-11-19T11:58:05;0.10;;;0.10;;
16179;SDS011;8196;49.428;10.906;2023-11-19T12:00:33;0.10;;;0.10;;
16179;SDS011;8196;49.428;10.906;2023-11-19T12:03:04;0.10;;;0.10;;
16179;SDS011;8196;49.428;10.906;2023-11-19T12:05:31;0.00;;;0.00;;
16179;SDS011;8196;49.428;10.906;2023-11-19T12:08:01;1.40;;;0.30;;
16179;SDS011;8196;49.428;10.906;2023-11-19T12:10:29;0.40;;;0.40;;
16179;SDS011;8196;49.428;10.906;2023-11-19T12:12:58;0.17;;;0.17;;
16179;SDS011;8196;49.428;10.906;2023-11-19T12:15:26;0.20;;;0.20;;
16179;SDS011;8196;49.428;10.906;2023-11-19T12:17:54;0.25;;;0.25;;
16179;SDS011;8196;49.428;10.906;2023-11-19T12:20:22;0.40;;;0.40;;
16179;SDS011;8196;49.428;10.906;2023-11-19T12:22:53;0.30;;;0.30;;
16179;SDS011;8196;49.428;10.906;2023-11-19T12:25:20;0.10;;;0.10;;
16179;SDS011;8196;49.428;10.906;2023-11-19T12:27:49;0.10;;;0.10;;
16179;SDS011;8196;49.428;10.906;2023-11-19T12:30:16;0.25;;;0.25;;
16179;SDS011;8196;49.428;10.906;2023-11-19T12:32:45;0.25;;;0.25;;
16179;SDS011;8196;49.428;10.906;2023-11-19T12:35:12;0.40;;;0.40;;
16179;SDS011;8196;49.428;10.906;2023-11-19T12:37:40;0.28;;;0.28;;
16179;SDS011;8196;49.428;10.906;2023-11-19T12:40:15;0.10;;;0.10;;
16179;SDS011;8196;49.428;10.906;2023-11-19T12:42:44;2.27;;;0.47;;
16179;SDS011;8196;49.428;10.906;2023-11-19T12:45:11;0.30;;;0.30;;
16179;SDS011;8196;49.428;10.906;2023-11-19T12:47:39;0.32;;;0.30;;
16179;SDS011;8196;49.428;10.906;2023-11-19T12:50:08;2.20;;;0.80;;
16179;SDS011;8196;49.428;10.906;2023-11-19T12:52:36;0.28;;;0.28;;
16179;SDS011;8196;49.428;10.906;2023-11-19T12:55:04;1.00;;;0.80;;
16179;SDS011;8196;49.428;10.906;2023-11-19T12:57:36;0.80;;;0.80;;
16179;SDS011;8196;49.428;10.906;2023-11-19T13:00:04;1.80;;;1.05;;
16179;SDS011;8196;49.428;10.906;2023-11-19T13:02:52;0.97;;;0.47;;
16179;SDS011;8196;49.428;10.906;2023-11-19T13:05:21;1.90;;;0.60;;
16179;SDS011;8196;49.428;10.906;2023-11-19T13:07:48;0.60;;;0.60;;
16179;SDS011;8196;49.428;10.906;2023-11-19T13:10:15;0.67;;;0.47;;
16179;SDS011;8196;49.428;10.906;2023-11-19T13:12:59;2.10;;;0.82;;
16179;SDS011;8196;49.428;10.906;2023-11-19T13:15:26;1.40;;;0.82;;
16179;SDS011;8196;49.428;10.906;2023-11-19T13:17:54;0.75;;;0.52;;
16179;SDS011;8196;49.428;10.906;2023-11-19T13:20:21;0.90;;;0.60;;
16179;SDS011;8196;49.428;10.906;2023-11-19T13:23:04;0.50;;;0.50;;
16179;SDS011;8196;49.428;10.906;2023-11-19T13:25:33;0.77;;;0.77;;
16179;SDS011;8196;49.428;10.906;2023-11-19T13:28:00;2.00;;;1.00;;
16179;SDS011;8196;49.428;10.906;2023-11-19T13:30:28;1.25;;;0.98;;
16179;SDS011;8196;49.428;10.906;2023-11-19T13:32:55;0.88;;;0.82;;
16179;SDS011;8196;49.428;10.906;2023-11-19T13:35:23;1.42;;;0.98;;
16179;SDS011;8196;49.428;10.906;2023-11-19T13:37:50;1.27;;;0.60;;
16179;SDS011;8196;49.428;10.906;2023-11-19T13:40:18;3.10;;;0.77;;
16179;SDS011;8196;49.428;10.906;2023-11-19T13:42:46;1.75;;;0.70;;
16179;SDS011;8196;49.428;10.906;2023-11-19T13:45:13;0.80;;;0.60;;
16179;SDS011;8196;49.428;10.906;2023-11-19T13:47:43;1.88;;;0.80;;
16179;SDS011;8196;49.428;10.906;2023-11-19T13:50:11;0.70;;;0.60;;
16179;SDS011;8196;49.428;10.906;2023-11-19T13:52:39;2.63;;;0.60;;
16179;SDS011;8196;49.428;10.906;2023-11-19T13:55:09;0.47;;;0.47;;
16179;SDS011;8196;49.428;10.906;2023-11-19T13:57:37;1.08;;;0.60;;
16179;SDS011;8196;49.428;10.906;2023-11-19T14:00:05;0.60;;;0.47;;
16179;SDS011;8196;49.428;10.906;2023-11-19T14:02:33;1.77;;;0.80;;
16179;SDS011;8196;49.428;10.906;2023-11-19T14:05:00;1.20;;;0.70;;
16179;SDS011;8196;49.428;10.906;2023-11-19T14:07:27;1.60;;;0.65;;
16179;SDS011;8196;49.428;10.906;2023-11-19T14:09:55;1.10;;;0.43;;
16179;SDS011;8196;49.428;10.906;2023-11-19T14:12:22;1.33;;;0.60;;
16179;SDS011;8196;49.428;10.906;2023-11-19T14:14:49;1.40;;;0.70;;
16179;SDS011;8196;49.428;10.906;2023-11-19T14:17:16;2.40;;;0.80;;
16179;SDS011;8196;49.428;10.906;2023-11-19T14:19:44;0.95;;;0.60;;
16179;SDS011;8196;49.428;10.906;2023-11-19T14:22:12;0.90;;;0.75;;
16179;SDS011;8196;49.428;10.906;2023-11-19T14:24:39;0.95;;;0.80;;
16179;SDS011;8196;49.428;10.906;2023-11-19T14:27:08;1.42;;;0.60;;
16179;SDS011;8196;49.428;10.906;2023-11-19T14:29:36;1.17;;;0.75;;
16179;SDS011;8196;49.428;10.906;2023-11-19T14:32:03;1.48;;;0.70;;
16179;SDS011;8196;49.428;10.906;2023-11-19T14:34:31;0.80;;;0.80;;
16179;SDS011;8196;49.428;10.906;2023-11-19T14:36:59;1.38;;;0.82;;
16179;SDS011;8196;49.428;10.906;2023-11-19T14:39:27;3.35;;;0.93;;
16179;SDS011;8196;49.428;10.906;2023-11-19T14:41:57;1.52;;;0.80;;
16179;SDS011;8196;49.428;10.906;2023-11-19T14:44:27;1.10;;;0.80;;
16179;SDS011;8196;49.428;10.906;2023-11-19T14:46:55;1.48;;;0.95;;
16179;SDS011;8196;49.428;10.906;2023-11-19T14:49:23;1.58;;;0.90;;
16179;SDS011;8196;49.428;10.906;2023-11-19T14:51:50;3.03;;;1.20;;
16179;SDS011;8196;49.428;10.906;2023-11-19T14:54:18;0.82;;;0.80;;
16179;SDS011;8196;49.428;10.906;2023-11-19T14:56:45;2.38;;;0.85;;
16179;SDS011;8196;49.428;10.906;2023-11-19T14:59:12;1.05;;;0.80;;
16179;SDS011;8196;49.428;10.906;2023-11-19T15:01:39;2.22;;;0.68;;
16179;SDS011;8196;49.428;10.906;2023-11-19T15:04:07;3.70;;;1.00;;
16179;SDS011;8196;49.428;10.906;2023-11-19T15:06:34;1.60;;;0.90;;
16179;SDS011;8196;49.428;10.906;2023-11-19T15:09:02;2.15;;;1.00;;
16179;SDS011;8196;49.428;10.906;2023-11-19T15:11:29;1.13;;;0.90;;
16179;SDS011;8196;49.428;10.906;2023-11-19T15:13:56;2.20;;;1.10;;
16179;SDS011;8196;49.428;10.906;2023-11-19T15:16:24;1.30;;;0.90;;